Tiempo atmosférico en la estación meteorológica de Villafranca De Los Barros, Badajoz (430 m.)



Fecha
DESCASC
Temp. máxima en grados centígrados (hora)
DESCASC
Temp. mínima en grados centígrados (hora)
DESCASC
Temp. media en grados centígrados
DESCASC
Racha de viento máxima en m/sg (hora)
DESCASC
Velocidad máxima media en intervalos de 10 minutos(hora)
DESCASC
Precipitaciones diarias en mm
DESCASC
Precipitaciones de 00:00 a 06:00 en mm
DESCASC
Precipitaciones de 06:00 a 12:00 en mm
DESCASC
Precipitaciones de 12:00 a 18:00 en mm
DESCASC
Precipitaciones de 18:00 a 24:00 en mm
DESCASC
13-01-2021 11.5 (16:40) -5.7 (08:00) 2.9 4.17 (15:10) 2.22 (15:10) 0 0 0 0 0
12-01-2021 9.7 (16:10) -6.5 (07:20) 1.6 3.61 (15:00) 2.78 (11:30) 0 0 0 0 0
11-01-2021 7.1 (16:00) -3.5 (08:10) 1.8 5.56 (15:10) 3.89 (01:40) 0 0 0 0 0
10-01-2021 7 (16:20) 0.5 (02:00) 3.8 8.61 (15:40) 6.11 (15:40) 3 2.6 0.4 0 0
09-01-2021 2.6 (11:50) 1.2 (00:00) 1.9 8.61 (06:20) 5.83 (06:00) 1.4 0.8 0.4 0.2 0
08-01-2021 4.4 (13:00) 1.7 (00:00) 3.1 8.33 (13:10) 5.28 (17:20) 10.6 0 1 6 3.6
07-01-2021 5.7 (14:10) 2.8 (00:00) 4.2 9.17 (21:20) 5.83 (21:20) 0 0 0 0 0
06-01-2021 6.6 (16:30) -6.8 (-00:0) -0.1 6.39 (16:50) 4.17 (16:30) 0.2 0 0.2 0 0
05-01-2021 6.5 (16:00) -3.8 (-00:0) 1.4 4.72 (17:10) 3.33 (17:00) 0 0 0 0 0
04-01-2021 8.4 (15:20) -0.7 (-00:0) 3.8 8.06 (15:40) 5.56 (15:10) 0 0 0 0 0
03-01-2021 8.7 (15:50) -2.7 (-00:0) 3 8.61 (15:00) 5.28 (14:50) 0 0 0 0 0
02-01-2021 7.7 (16:10) 0.2 (00:00) 3.9 8.89 (16:50) 5.83 (15:50) 0 0 0 0 0
01-01-2021 8.9 (14:50) 2.2 (00:00) 5.5 12.5 (16:20) 9.17 (16:40) 0 0 0 0 0
31-12-2020 9.7 (17:10) -0.6 (-00:0) 4.5 11.11 (23:40) 7.5 (23:40) 1 0 0 0 1
30-12-2020 9 (15:40) -0.1 (00:00) 4.4 7.5 (16:40) 5.28 (14:40) 0 0 0 0 0
29-12-2020 10.2 (16:40) 3 (00:00) 6.6 12.22 (13:00) 8.33 (17:00) 0.6 0 0.6 0 0
28-12-2020 10.8 (15:10) 4.5 (00:00) 7.7 16.11 (06:00) 10 (05:30) 2.4 0 2.4 0 0
27-12-2020 11.9 (16:10) -3.5 (-00:0) 4.2 10.83 (23:20) 6.94 (23:20) 0 0 0 0 0
26-12-2020 10.3 (14:30) -1.8 (-00:0) 4.3 11.11 (02:10) 7.5 (02:20) 0 0 0 0 0
25-12-2020 11.8 (15:00) 3.8 (00:00) 7.8 11.11 (23:20) 6.94 (23:59) 0 0 0 0 0
24-12-2020 12.3 (15:10) 7.2 (00:00) 9.8 5 (10:30) 3.61 (10:00) 0.2 0 0.2 0 0
23-12-2020 14.2 (15:00) 5.2 (00:00) 9.7 5 (13:00) 3.61 (13:10) 0 0 0 0 0
22-12-2020 18.1 (16:00) 4.9 (00:00) 11.5 4.72 (13:30) 3.33 (13:30) 0 0 0 0 0
21-12-2020 14.1 (14:30) 3.6 (00:00) 8.9 3.89 (15:50) 2.5 (15:00) 0.2 0 0.2 0 0
20-12-2020 12.8 (15:40) 5.1 (00:00) 9 4.17 (16:30) 2.78 (04:20) 0 0 0 0 0
19-12-2020 11.6 (15:40) 7.4 (00:00) 9.5 11.39 (11:10) 8.61 (09:50) 16.8 0 7.4 4.2 5.2
18-12-2020 13.6 (16:00) 4 (00:00) 8.8 6.11 (16:00) 4.17 (16:00) 0.2 0 0.2 0 0

Gráficas

Temp. máximas Temp. mínimas Temp. medias Precipitaciones Rachas de viento máximas Velocidades máximas media en intervalos de 10 minutos

Datos horarios

Fecha y hora oficial Temperatura (ºC) Velocidad del viento (km/h) Dirección del viento Racha (km/h) Dirección de racha Precipitación (mm) Presión (hPa) Tendencia (hPa) Humedad (%)
2021-01-16 23:00:00 -0.5 3 Sur 8 Sur 0 -- -- 84
2021-01-16 22:00:00 -0.1 3 Sudeste 6 Sur 0 -- -- 84
2021-01-16 21:00:00 0.9 4 Sur 6 Sur 0 -- -- 82
2021-01-16 20:00:00 3 2 Sur 5 Sudoeste 0 -- -- 75
2021-01-16 19:00:00 8.7 0 Calma 6 Norte 0 -- -- 57
2021-01-16 18:00:00 13.7 5 Norte 8 Norte 0 -- -- 46
2021-01-16 17:00:00 15.1 5 Norte 12 Norte 0 -- -- 34
2021-01-16 16:00:00 15.3 6 Norte 9 Norte 0 -- -- 32
2021-01-16 15:00:00 14.7 4 Nordeste 9 Nordeste 0 -- -- 39
2021-01-16 14:00:00 13.7 3 Nordeste 10 Este 0 -- -- 47
2021-01-16 13:00:00 12.5 3 Sur 7 Sur 0 -- -- 55
2021-01-16 12:00:00 10.4 3 Este 6 Sudeste 0 -- -- 65
2021-01-16 11:00:00 6.7 3 Sur 5 Sur 0 -- -- 80
2021-01-16 10:00:00 0.5 5 Sur 6 Sur 0.2 -- -- 99
2021-01-16 09:00:00 -3.6 2 Sur 5 Sur 0 -- -- 96
2021-01-16 08:00:00 -3.5 2 Sudeste 4 Sur 0 -- -- 97
2021-01-16 07:00:00 -3.2 3 Sur 5 Sur 0 -- -- 96
2021-01-16 06:00:00 -2.7 3 Sur 6 Sudoeste 0 -- -- 95
2021-01-16 05:00:00 -2.1 4 Sur 6 Sur 0 -- -- 96
2021-01-16 04:00:00 -1.9 5 Sur 6 Sur 0 -- -- 95
2021-01-16 03:00:00 -2 5 Sur 7 Sur 0 -- -- 95
2021-01-16 02:00:00 -1.6 3 Sur 7 Sur 0 -- -- 94
2021-01-16 01:00:00 -1.6 4 Sudeste 8 Sur 0 -- -- 93
2021-01-16 00:00:00 -1.2 3 Sudeste 6 Sur 0 -- -- 94
2021-01-15 23:00:00 -1 5 Sur 6 Sur 0 -- -- 94
2021-01-15 22:00:00 -0.4 2 Sur 8 Sur 0 -- -- 94
2021-01-15 21:00:00 0.3 0 Calma 4 Sur 0 -- -- 88
2021-01-15 20:00:00 2.8 2 Sur 6 Sur 0 -- -- 81
2021-01-15 19:00:00 7.2 0 Calma 8 Norte 0 -- -- 66
2021-01-15 18:00:00 10.6 6 Norte 13 Norte 0 -- -- 56
2021-01-15 17:00:00 11.6 8 Noroeste 15 Noroeste 0 -- -- 57
2021-01-15 16:00:00 11 11 Noroeste 19 Noroeste 0 -- -- 63
2021-01-15 15:00:00 11.5 10 Noroeste 15 Norte 0 -- -- 67
2021-01-15 14:00:00 11.1 10 Norte 16 Norte 0 -- -- 74
2021-01-15 13:00:00 10.2 5 Sudeste 8 Sudeste 0 -- -- 66
2021-01-15 12:00:00 7.3 4 Sudeste 9 Sudeste 0 -- -- 87
2021-01-15 11:00:00 3 6 Sur 8 Sudeste 0 -- -- 100
2021-01-15 10:00:00 -0.9 2 Sur 5 Sur 0 -- -- 100
2021-01-15 09:00:00 -3 3 Sur 5 Sur 0 -- -- 99
2021-01-15 08:00:00 -3.6 3 Sur 4 Sur 0 -- -- 98
2021-01-15 07:00:00 -4.5 0 Calma 5 Sur 0 -- -- 97
2021-01-15 06:00:00 -3.5 2 Sur 5 Sur 0 -- -- 97
2021-01-15 05:00:00 -3.7 4 Sudeste 6 Sur 0 -- -- 97
2021-01-15 04:00:00 -3.2 3 Sur 6 Sur 0 -- -- 97
2021-01-15 03:00:00 -3.2 4 Sur 6 Sur 0 -- -- 96
2021-01-15 02:00:00 -2.4 4 Sur 8 Sur 0 -- -- 97
2021-01-15 01:00:00 -2.1 3 Sudeste 6 Sur 0 -- -- 96
2021-01-15 00:00:00 -1.6 2 Sudeste 4 Sudeste 0 -- -- 96
2021-01-14 23:00:00 -1.6 2 Sur 6 Sur 0 -- -- 94
2021-01-14 22:00:00 -1 2 Sudeste 7 Sur 0 -- -- 94
2021-01-14 21:00:00 -0.7 4 Sudeste 6 Sur 0 -- -- 92
2021-01-14 20:00:00 0.8 5 Sur 5 Sur 0 -- -- 84
2021-01-14 19:00:00 4.8 0 Calma 13 Noroeste 0 -- -- 72
2021-01-14 18:00:00 7.9 9 Noroeste 14 Noroeste 0 -- -- 62
2021-01-14 17:00:00 9.2 9 Noroeste 19 Noroeste 0 -- -- 56
2021-01-14 16:00:00 9.3 12 Noroeste 23 Noroeste 0 -- -- 55
2021-01-14 15:00:00 9 11 Noroeste 19 Oeste 0 -- -- 57
2021-01-14 14:00:00 7.7 11 Noroeste 17 Noroeste 0 -- -- 65
2021-01-14 13:00:00 6.5 10 Noroeste 15 Oeste 0 -- -- 72
2021-01-14 12:00:00 5 7 Noroeste 10 Noroeste 0 -- -- 83
2021-01-14 11:00:00 3.1 5 Noroeste 10 Noroeste 0 -- -- 92
2021-01-14 10:00:00 -0.9 0 Calma 4 Sur 0 -- -- 98
2021-01-14 09:00:00 -4.6 4 Sur -- -- 0 -- -- 96
2021-01-14 08:00:00 -4.4 0 Calma 3 Sudeste 0 -- -- 95
2021-01-14 07:00:00 -4 2 Sur 6 Sur 0 -- -- 96
2021-01-14 06:00:00 -3.6 3 Sur 6 Sur 0 -- -- 94
2021-01-14 05:00:00 -3 2 Sudeste 4 Sudoeste 0 -- -- 93
2021-01-14 04:00:00 -2.3 3 Sur 4 Sur 0 -- -- 92
2021-01-14 03:00:00 -1.3 2 Sur 5 Sur 0 -- -- 93
2021-01-14 02:00:00 -1.1 4 Sur 5 Sur 0 -- -- 88
2021-01-14 01:00:00 0.1 3 Sur 7 Sudoeste 0 -- -- 88
2021-01-14 00:00:00 1.7 3 Sur 5 Sudoeste 0 -- -- 80
2021-01-13 23:00:00 1 4 Sudoeste 6 Sur 0 -- -- 84
2021-01-13 22:00:00 -0.1 3 Sur 5 Sur 0 -- -- 90
2021-01-13 21:00:00 0.8 5 Sur 6 Sur 0 -- -- 89
2021-01-13 20:00:00 3 0 Calma 4 Sudoeste 0 -- -- 77
2021-01-13 19:00:00 6.8 3 Oeste 6 Oeste 0 -- -- 65
2021-01-13 18:00:00 10.8 4 Oeste 10 Noroeste 0 -- -- 52
2021-01-13 17:00:00 11.4 6 Oeste 10 Noroeste 0 -- -- 44
2021-01-13 16:00:00 11.3 6 Noroeste 15 Noroeste 0 -- -- 46
2021-01-13 15:00:00 10.8 6 Noroeste 10 Noroeste 0 -- -- 51
2021-01-13 14:00:00 9.5 5 Norte 11 Noroeste 0 -- -- 49
2021-01-13 13:00:00 8.4 2 Noroeste 6 Noroeste 0 -- -- 53
2021-01-13 12:00:00 6.4 4 Norte 6 Norte 0 -- -- 56
2021-01-13 11:00:00 4.9 0 Calma 3 Sudoeste 0 -- -- 66
2021-01-13 10:00:00 -1 2 Sur 5 Sur 0 -- -- 89
2021-01-13 09:00:00 -5.4 5 Sur 6 Sur 0 -- -- 90
2021-01-13 08:00:00 -5.7 4 Sur 6 Sur 0 -- -- 90
2021-01-13 07:00:00 -4.7 3 Sur 5 Sur 0 -- -- 88
2021-01-13 06:00:00 -3.7 3 Sudeste 5 Sur 0 -- -- 85
2021-01-13 05:00:00 -4.1 4 Sur 6 Sur 0 -- -- 87
2021-01-13 04:00:00 -4 4 Sur 5 Sur 0 -- -- 90
2021-01-13 03:00:00 -3.7 4 Sur 7 Sur 0 -- -- 92
2021-01-13 02:00:00 -3.3 2 Sudeste 7 Sur 0 -- -- 92
2021-01-13 01:00:00 -2.7 4 Sur 6 Sudoeste 0 -- -- 94
2021-01-13 00:00:00 -2.5 5 Sur 8 Sur 0 -- -- 93
2021-01-12 23:00:00 -1.9 0 Calma 7 Sur 0 -- -- 93
2021-01-12 22:00:00 -1.3 2 Sudeste 6 Sur 0 -- -- 93
2021-01-12 21:00:00 -0.6 0 Calma 5 Sur 0 -- -- 92
2021-01-12 20:00:00 0.8 3 Sur 4 Sur 0 -- -- 86
2021-01-12 19:00:00 4.5 2 Norte 9 Norte 0 -- -- 69
2021-01-12 18:00:00 7.5 7 Norte 10 Norte 0 -- -- 57
2021-01-12 17:00:00 8.8 7 Norte 12 Norte 0 -- -- 48
2021-01-12 16:00:00 9.3 4 Nordeste 11 Nordeste 0 -- -- 44
2021-01-12 15:00:00 9.1 6 Este 13 Este 0 -- -- 46
2021-01-12 14:00:00 8.2 4 Sur 9 Este 0 -- -- 49
2021-01-12 13:00:00 6.7 3 Sudeste 10 Este 0 -- -- 56
2021-01-12 12:00:00 4.5 6 Sudeste 13 Sudeste 0 -- -- 64
2021-01-12 11:00:00 2.6 6 Sudeste 9 Sudeste 0 -- -- 69
2021-01-12 10:00:00 -2.2 2 Sur 5 Sur 0 -- -- 90
2021-01-12 09:00:00 -5.9 4 Sur 5 Sur 0 -- -- 89
2021-01-12 08:00:00 -6.2 3 Sur 7 Sur 0 -- -- 92
2021-01-12 07:00:00 -6.3 4 Sur 5 Sur 0 -- -- 90
2021-01-12 06:00:00 -5.5 0 Calma 8 Sur 0 -- -- 90
2021-01-12 05:00:00 -4.7 3 Sur 5 Sur 0 -- -- 89
2021-01-12 04:00:00 -3.8 5 Sur 5 Sur 0 -- -- 89
2021-01-12 03:00:00 -3.2 3 Sudeste 5 Sur 0 -- -- 90
2021-01-12 02:00:00 -3 4 Sur 5 Sur 0 -- -- 90
2021-01-12 01:00:00 -2.9 4 Sudeste 8 Sudeste 0 -- -- 92
2021-01-12 00:00:00 -1.7 0 Calma 8 Sur 0 -- -- 91
2021-01-11 23:00:00 -1.9 0 Calma 6 Sur 0 -- -- 94
2021-01-11 22:00:00 -1 3 Sur 5 Sudoeste 0 -- -- 94
2021-01-11 21:00:00 -0.7 3 Sur 5 Sur 0 -- -- 93
2021-01-11 20:00:00 0.3 0 Calma -- -- 0 -- -- 90
2021-01-11 19:00:00 3.2 0 Calma 9 Nordeste 0 -- -- 79
2021-01-11 18:00:00 6.3 6 Nordeste 18 Nordeste 0 -- -- 64
2021-01-11 17:00:00 7.1 8 Norte 19 Nordeste 0 -- -- 61
2021-01-11 16:00:00 7.1 11 Norte 20 Norte 0 -- -- 59
2021-01-11 15:00:00 7 12 Norte 19 Norte 0 -- -- 71
2021-01-11 14:00:00 6.2 12 Norte 18 Norte 0 -- -- 75
2021-01-11 13:00:00 4.9 11 Norte 16 Norte 0 -- -- 80
2021-01-11 12:00:00 3.7 3 Norte 7 Noroeste 0 -- -- 81
2021-01-11 11:00:00 1.7 4 Noroeste 8 Oeste 0 -- -- 89
2021-01-11 10:00:00 -0.1 0 Calma 5 Sudoeste 0 -- -- 94
2021-01-11 09:00:00 -2.7 4 Sudoeste 5 Sudoeste 0 -- -- 96
2021-01-11 08:00:00 -3.4 0 Calma 4 Sudoeste 0 -- -- 95
2021-01-11 07:00:00 -2.2 0 Calma 4 Noroeste 0 -- -- 95
2021-01-11 06:00:00 -1.4 4 Noroeste 17 Norte 0 -- -- 94
2021-01-11 05:00:00 -0.8 11 Norte 17 Norte 0 -- -- 94
2021-01-11 04:00:00 -0.2 0 Calma 9 Este 0 -- -- 91
2021-01-11 03:00:00 -0.6 2 Nordeste 11 Norte 0 -- -- 93
2021-01-11 02:00:00 0.2 9 Norte 17 Norte 0 -- -- 91
2021-01-11 01:00:00 0.9 7 Norte 13 Norte 0 -- -- 87
2021-01-11 00:00:00 0.9 5 Noroeste 10 Noroeste 0 -- -- 89
2021-01-10 23:00:00 1.1 0 Calma 7 Norte 0 -- -- 89
2021-01-10 22:00:00 0.8 4 Noroeste 9 Noroeste 0 -- -- 92
2021-01-10 21:00:00 2.3 4 Norte 17 Norte 0 -- -- 86
2021-01-10 20:00:00 3.6 8 Norte 16 Norte 0 -- -- 86
2021-01-10 19:00:00 4.6 12 Norte 21 Norte 0 -- -- 83
2021-01-10 18:00:00 5.8 10 Norte 21 Norte 0 -- -- 79
2021-01-10 17:00:00 6.6 14 Norte 28 Norte 0 -- -- 73
2021-01-10 16:00:00 6.7 18 Norte 31 Norte 0 -- -- 74
2021-01-10 15:00:00 6.6 20 Norte 28 Nordeste 0 -- -- 77
2021-01-10 14:00:00 5.8 11 Nordeste 24 Nordeste 0 -- -- 77
2021-01-10 13:00:00 5.3 15 Este 28 Este 0 -- -- 86
2021-01-10 12:00:00 3.4 13 Nordeste 26 Este 0 -- -- 91
2021-01-10 11:00:00 2.2 11 Nordeste 17 Nordeste 0 -- -- 97
2021-01-10 10:00:00 2 11 Nordeste 17 Este 0.2 -- -- 94
2021-01-10 09:00:00 1.1 3 Sur 9 Nordeste 0 -- -- 98
2021-01-10 08:00:00 0.9 8 Nordeste 13 Nordeste 0.2 -- -- 98
2021-01-10 07:00:00 0.7 4 Nordeste 15 Norte 0 -- -- 99
2021-01-10 06:00:00 1 9 Norte 14 Nordeste 0.2 -- -- 100
2021-01-10 05:00:00 1.2 8 Norte 13 Norte 0.2 -- -- 100
2021-01-10 04:00:00 1.1 4 Norte 10 Nordeste 0.4 -- -- 100
2021-01-10 03:00:00 0.7 6 Norte 10 Nordeste 0.6 -- -- 100
2021-01-10 02:00:00 0.5 4 Norte 8 Norte 1.2 -- -- 99
2021-01-10 01:00:00 1.4 5 Norte 9 Norte 0 -- -- 99
2021-01-10 00:00:00 1.4 5 Noroeste 10 Norte 0 -- -- 98
2021-01-09 23:00:00 1.4 4 Nordeste 8 Nordeste 0 -- -- 98
2021-01-09 22:00:00 1.2 3 Nordeste 4 Nordeste 0 -- -- 97
2021-01-09 21:00:00 1.3 3 Norte 5 Norte 0 -- -- 97
2021-01-09 20:00:00 1.3 4 Noroeste 8 Noroeste 0 -- -- 97
2021-01-09 19:00:00 1.4 6 Noroeste 10 Noroeste 0 -- -- 97
2021-01-09 18:00:00 1.8 6 Noroeste 12 Noroeste 0 -- -- 96
2021-01-09 17:00:00 2 6 Noroeste 10 Noroeste 0 -- -- 96
2021-01-09 16:00:00 1.9 9 Oeste 13 Oeste 0.2 -- -- 96
2021-01-09 15:00:00 1.9 10 Oeste 19 Oeste 0 -- -- 96
2021-01-09 14:00:00 1.9 15 Oeste 22 Sudoeste 0 -- -- 96
2021-01-09 13:00:00 2.1 17 Oeste 25 Oeste 0 -- -- 91
2021-01-09 12:00:00 2.6 15 Oeste 24 Oeste 0 -- -- 86
2021-01-09 11:00:00 2.1 18 Oeste 26 Oeste 0 -- -- 88
2021-01-09 10:00:00 1.6 16 Oeste 25 Oeste 0 -- -- 93
2021-01-09 09:00:00 1.5 18 Noroeste 28 Noroeste 0 -- -- 96
2021-01-09 08:00:00 1.4 19 Noroeste 28 Noroeste 0.2 -- -- 98
2021-01-09 07:00:00 1.4 20 Noroeste 31 Noroeste 0.2 -- -- 99
2021-01-09 06:00:00 1.8 21 Oeste 29 Oeste 0.2 -- -- 100
2021-01-09 05:00:00 2 16 Noroeste 23 Noroeste 0.2 -- -- 100
2021-01-09 04:00:00 2.1 15 Noroeste 21 Noroeste 0 -- -- 100
2021-01-09 03:00:00 1.7 14 Noroeste 21 Noroeste 0.2 -- -- 100
2021-01-09 02:00:00 1.6 12 Noroeste 19 Noroeste 0 -- -- 100
2021-01-09 01:00:00 1.6 12 Noroeste 18 Noroeste 0.2 -- -- 100
2021-01-09 00:00:00 1.8 10 Noroeste 18 Noroeste 0.2 -- -- 100
2021-01-08 23:00:00 1.9 13 Noroeste 21 Noroeste 0.4 -- -- 99
2021-01-08 22:00:00 1.9 11 Norte 21 Norte 0.4 -- -- 99
2021-01-08 21:00:00 2.3 14 Norte 23 Nordeste 0.4 -- -- 99
2021-01-08 20:00:00 2.2 15 Norte 25 Norte 1 -- -- 99
2021-01-08 19:00:00 2.6 17 Norte 26 Norte 1.2 -- -- 99
2021-01-08 18:00:00 3 15 Norte 29 Norte 0.4 -- -- 99
2021-01-08 17:00:00 3.2 16 Norte 28 Nordeste 1.6 -- -- 99
2021-01-08 16:00:00 3.6 18 Nordeste 29 Nordeste 1.4 -- -- 97
2021-01-08 15:00:00 3.8 16 Nordeste 28 Nordeste 1 -- -- 96
2021-01-08 14:00:00 4.1 15 Nordeste 30 Este 1.4 -- -- 96
2021-01-08 13:00:00 4.4 16 Nordeste 26 Nordeste 0.2 -- -- 94
2021-01-08 12:00:00 4.1 15 Nordeste 23 Nordeste 0.4 -- -- 95
2021-01-08 11:00:00 3.7 8 Nordeste 15 Nordeste 0.4 -- -- 95
2021-01-08 10:00:00 3.3 9 Nordeste 22 Este 0 -- -- 94
2021-01-08 09:00:00 3 14 Este 27 Este 0.2 -- -- 92
2021-01-08 08:00:00 3.1 11 Nordeste 21 Nordeste 0 -- -- 90
2021-01-08 07:00:00 3.1 12 Nordeste 23 Nordeste 0 -- -- 87
2021-01-08 06:00:00 2.7 12 Nordeste 21 Este 0 -- -- 88
2021-01-08 05:00:00 2.5 9 Nordeste 21 Nordeste 0 -- -- 89
2021-01-08 04:00:00 2.5 14 Nordeste 24 Nordeste 0 -- -- 89
2021-01-08 03:00:00 1.9 8 Nordeste 19 Nordeste 0 -- -- 91
2021-01-08 02:00:00 2.3 13 Nordeste 22 Nordeste 0 -- -- 88
2021-01-08 01:00:00 2.7 10 Nordeste 23 Nordeste 0 -- -- 87
2021-01-08 00:00:00 3 13 Nordeste 21 Nordeste 0 -- -- 86
2021-01-07 23:00:00 3.4 9 Este 23 Este 0 -- -- 85
2021-01-07 22:00:00 3.7 14 Nordeste 33 Este 0 -- -- 83
2021-01-07 21:00:00 4.2 19 Nordeste 32 Nordeste 0 -- -- 81
2021-01-07 20:00:00 4.4 14 Nordeste 26 Nordeste 0 -- -- 86
2021-01-07 19:00:00 4.4 12 Nordeste 24 Este 0 -- -- 87
2021-01-07 18:00:00 4.5 15 Nordeste 25 Nordeste 0 -- -- 86
2021-01-07 17:00:00 4.6 16 Nordeste 26 Nordeste 0 -- -- 86
2021-01-07 16:00:00 5 15 Nordeste 25 Nordeste 0 -- -- 86
2021-01-07 15:00:00 5.2 14 Nordeste 23 Nordeste 0 -- -- 85
2021-01-07 14:00:00 5.6 16 Nordeste 23 Nordeste 0 -- -- 83
2021-01-07 13:00:00 4.9 13 Nordeste 25 Nordeste 0 -- -- 87
2021-01-07 12:00:00 4.5 11 Nordeste 20 Nordeste 0 -- -- 90
2021-01-07 11:00:00 4.1 12 Nordeste 19 Nordeste 0 -- -- 92
2021-01-07 10:00:00 3.7 10 Nordeste 17 Nordeste 0 -- -- 94
2021-01-07 09:00:00 3.3 7 Nordeste 13 Norte 0 -- -- 93
2021-01-07 08:00:00 2.9 4 Nordeste 10 Norte 0 -- -- 92
2021-01-07 07:00:00 3 5 Norte 11 Nordeste 0 -- -- 92
2021-01-07 06:00:00 3.4 5 Nordeste 13 Norte 0 -- -- 90
2021-01-07 05:00:00 3.6 7 Norte 18 Nordeste 0 -- -- 89
2021-01-07 04:00:00 3.7 10 Nordeste 17 Nordeste 0 -- -- 86
2021-01-07 03:00:00 3.4 5 Nordeste 8 Nordeste 0 -- -- 83
2021-01-07 02:00:00 3.4 4 Nordeste 8 Nordeste 0 -- -- 84
2021-01-07 01:00:00 3.7 7 Este 11 Este 0 -- -- 83
2021-01-07 00:00:00 4.2 2 Este 15 Sudeste 0 -- -- 79
2021-01-06 23:00:00 3.9 8 Sudeste 10 Sudeste 0 -- -- 81
2021-01-06 22:00:00 3.6 3 Norte 9 Nordeste 0 -- -- 81
2021-01-06 21:00:00 4.4 7 Este 15 Nordeste 0 -- -- 77
2021-01-06 20:00:00 4.1 5 Nordeste 10 Nordeste 0 -- -- 80
2021-01-06 19:00:00 4.4 6 Este 12 Nordeste 0 -- -- 78
2021-01-06 18:00:00 5.5 9 Nordeste 22 Nordeste 0 -- -- 72
2021-01-06 17:00:00 6.4 14 Nordeste 23 Nordeste 0 -- -- 66
2021-01-06 16:00:00 6.3 11 Nordeste 18 Este 0 -- -- 70
2021-01-06 15:00:00 5.3 9 Nordeste 14 Nordeste 0 -- -- 68
2021-01-06 14:00:00 3.8 4 Nordeste 9 Este 0 -- -- 71
2021-01-06 13:00:00 2.7 2 Este 9 Sudeste 0 -- -- 81
2021-01-06 12:00:00 -0.3 4 Sudeste 6 Sudeste 0.2 -- -- 99
2021-01-06 11:00:00 -1.9 0 Calma -- -- 0 -- -- 99
2021-01-06 10:00:00 -4.6 0 Calma -- -- 0 -- -- 98
2021-01-06 09:00:00 -6.6 0 Calma -- -- 0 -- -- 96
2021-01-06 08:00:00 -6.7 0 Calma -- -- 0 -- -- 96
2021-01-06 07:00:00 -6.2 0 Calma -- -- 0 -- -- 96
2021-01-06 06:00:00 -5.9 0 Calma -- -- 0 -- -- 96
2021-01-06 05:00:00 -5.2 0 Calma -- -- 0 -- -- 97
2021-01-06 04:00:00 -5.1 0 Calma -- -- 0 -- -- 97
2021-01-06 03:00:00 -5 0 Calma -- -- 0 -- -- 96
2021-01-06 02:00:00 -4.5 0 Calma 4 Sur 0 -- -- 97
2021-01-06 01:00:00 -3.7 3 Sur 6 Sur 0 -- -- 98
2021-01-06 00:00:00 -3.8 0 Calma 5 Sur 0 -- -- 96
2021-01-05 23:00:00 -3.1 0 Calma 3 Sur 0 -- -- 97
2021-01-05 22:00:00 -2.2 3 Sur 5 Sur 0 -- -- 98
2021-01-05 21:00:00 -1.1 3 Sur 6 Sudoeste 0 -- -- 98
2021-01-05 20:00:00 -0.3 0 Calma 3 Noroeste 0 -- -- 95
2021-01-05 19:00:00 1.7 2 Noroeste 7 Norte 0 -- -- 94
2021-01-05 18:00:00 3.6 7 Norte 17 Nordeste 0 -- -- 92
2021-01-05 17:00:00 5.4 12 Norte 16 Norte 0 -- -- 88
2021-01-05 16:00:00 6.5 8 Norte 14 Norte 0 -- -- 85
2021-01-05 15:00:00 5.3 7 Nordeste 13 Este 0 -- -- 89
2021-01-05 14:00:00 4.8 9 Este 14 Este 0 -- -- 96
2021-01-05 13:00:00 3.5 7 Sudeste 12 Este 0 -- -- 100
2021-01-05 12:00:00 2.6 7 Sudeste 13 Sudeste 0 -- -- 100
2021-01-05 11:00:00 1.9 8 Sudeste 13 Sudeste 0 -- -- 100
2021-01-05 10:00:00 0.8 10 Sudeste 13 Sudeste 0 -- -- 100
2021-01-05 09:00:00 0.3 8 Sur 12 Sur 0 -- -- 100
2021-01-05 08:00:00 1 8 Sur 10 Sur 0 -- -- 99
2021-01-05 07:00:00 1.2 5 Sur 12 Sur 0 -- -- 99
2021-01-05 06:00:00 1.7 5 Sur 8 Sur 0 -- -- 99
2021-01-05 05:00:00 0.6 4 Sudoeste 6 Sudoeste 0 -- -- 99
2021-01-05 04:00:00 -0.6 3 Sur 6 Sur 0 -- -- 98
2021-01-05 03:00:00 -1.5 2 Sudeste 5 Sur 0 -- -- 96
2021-01-05 02:00:00 -0.1 3 Sur 5 Sur 0 -- -- 95
2021-01-05 01:00:00 1.7 3 Sudeste 10 Sur 0 -- -- 97
2021-01-05 00:00:00 1.4 4 Sudoeste 9 Sudoeste 0 -- -- 94
2021-01-04 23:00:00 3.3 8 Sudoeste 9 Sudoeste 0 -- -- 93
2021-01-04 22:00:00 4.8 7 Sudoeste 16 Oeste 0 -- -- 93
2021-01-04 21:00:00 5.1 9 Oeste 24 Oeste 0 -- -- 87
2021-01-04 20:00:00 4 5 Sur 9 Sudoeste 0 -- -- 87
2021-01-04 19:00:00 4.5 5 Oeste 12 Oeste 0 -- -- 83
2021-01-04 18:00:00 5.8 10 Oeste 21 Noroeste 0 -- -- 79
2021-01-04 17:00:00 6.9 14 Noroeste 26 Noroeste 0 -- -- 74
2021-01-04 16:00:00 7.8 15 Oeste 29 Oeste 0 -- -- 70
2021-01-04 15:00:00 8.1 19 Noroeste 27 Noroeste 0 -- -- 72
2021-01-04 14:00:00 7.3 16 Oeste 25 Sudoeste 0 -- -- 83
2021-01-04 13:00:00 5.9 16 Sudoeste 24 Sudoeste 0 -- -- 88
2021-01-04 12:00:00 5.1 9 Sudoeste 18 Oeste 0 -- -- 93
2021-01-04 11:00:00 4.6 11 Oeste 21 Oeste 0 -- -- 93
2021-01-04 10:00:00 2 7 Sudoeste 13 Sudoeste 0 -- -- 95
2021-01-04 09:00:00 -0.4 8 Sudoeste 14 Sudoeste 0 -- -- 96
2021-01-04 08:00:00 -0.2 7 Sudoeste 9 Sudoeste 0 -- -- 94
2021-01-04 07:00:00 0.4 8 Sudoeste 12 Oeste 0 -- -- 93
2021-01-04 06:00:00 1.1 10 Oeste 14 Oeste 0 -- -- 94
2021-01-04 05:00:00 0.2 10 Sudoeste 13 Sudoeste 0 -- -- 93
2021-01-04 04:00:00 0.3 9 Sudoeste 13 Sudoeste 0 -- -- 93
2021-01-04 03:00:00 -0.6 9 Sudoeste 11 Sudoeste 0 -- -- 93
2021-01-04 02:00:00 -0.4 5 Sudoeste 10 Sudoeste 0 -- -- 93
2021-01-04 01:00:00 -0.1 9 Sudoeste 11 Sudoeste 0 -- -- 92
2021-01-04 00:00:00 1.3 11 Oeste 14 Oeste 0 -- -- 91
2021-01-03 23:00:00 2.8 9 Oeste 16 Oeste 0 -- -- 87
2021-01-03 22:00:00 2.5 9 Oeste 14 Oeste 0 -- -- 86
2021-01-03 21:00:00 2 9 Sudoeste 12 Oeste 0 -- -- 85
2021-01-03 20:00:00 1.7 8 Oeste 10 Oeste 0 -- -- 81
2021-01-03 19:00:00 4.3 9 Oeste 18 Oeste 0 -- -- 71
2021-01-03 18:00:00 6.9 12 Oeste 22 Oeste 0 -- -- 65
2021-01-03 17:00:00 8.2 16 Noroeste 25 Oeste 0 -- -- 59
2021-01-03 16:00:00 8.6 17 Noroeste 26 Oeste 0 -- -- 58
2021-01-03 15:00:00 8.4 19 Oeste 31 Oeste 0 -- -- 57
2021-01-03 14:00:00 8 16 Noroeste 28 Oeste 0 -- -- 63
2021-01-03 13:00:00 6.9 13 Noroeste 21 Noroeste 0 -- -- 69
2021-01-03 12:00:00 5.6 9 Oeste 15 Oeste 0 -- -- 72
2021-01-03 11:00:00 4.2 8 Oeste 12 Oeste 0 -- -- 77
2021-01-03 10:00:00 0.9 0 Calma 4 Sudoeste 0 -- -- 88
2021-01-03 09:00:00 -2.5 2 Sudoeste 5 Sudoeste 0 -- -- 91
2021-01-03 08:00:00 -2.6 2 Sudoeste 5 Sudoeste 0 -- -- 91
2021-01-03 07:00:00 -1.8 3 Sur 6 Sudoeste 0 -- -- 88
2021-01-03 06:00:00 -2.2 5 Sudoeste 6 Sudoeste 0 -- -- 88
2021-01-03 05:00:00 -1.5 3 Sudoeste 6 Oeste 0 -- -- 92
2021-01-03 04:00:00 -2 3 Sur 5 Sudoeste 0 -- -- 89
2021-01-03 03:00:00 -0.3 3 Sudoeste 8 Oeste 0 -- -- 89
2021-01-03 02:00:00 0 2 Sudoeste 12 Oeste 0 -- -- 90
2021-01-03 01:00:00 -0.1 3 Oeste 11 Oeste 0 -- -- 89
2021-01-03 00:00:00 0.4 2 Sur 6 Noroeste 0 -- -- 86
2021-01-02 23:00:00 0.8 3 Noroeste 11 Sudoeste 0 -- -- 85
2021-01-02 22:00:00 0.7 8 Oeste 10 Oeste 0 -- -- 82
2021-01-02 21:00:00 1.3 3 Noroeste 7 Oeste 0 -- -- 78
2021-01-02 20:00:00 2.6 2 Norte 7 Norte 0 -- -- 73
2021-01-02 19:00:00 4.2 6 Norte 21 Noroeste 0 -- -- 67
2021-01-02 18:00:00 6.5 15 Noroeste 30 Noroeste 0 -- -- 58
2021-01-02 17:00:00 7.4 20 Noroeste 32 Noroeste 0 -- -- 62
2021-01-02 16:00:00 7.6 20 Noroeste 31 Noroeste 0 -- -- 63
2021-01-02 15:00:00 7.4 18 Noroeste 28 Noroeste 0 -- -- 63
2021-01-02 14:00:00 6.7 17 Noroeste 27 Noroeste 0 -- -- 64